createdAt,value
2023-04-02T00:00:09.776Z,95164.19
2023-04-02T00:02:55.155Z,95165.00
2023-04-02T00:05:31.416Z,95158.09
2023-04-02T00:08:03.706Z,95160.22
2023-04-02T00:10:40.661Z,95156.13
2023-04-02T00:13:18.257Z,95150.28
2023-04-02T00:15:49.758Z,95154.41
2023-04-02T00:18:18.334Z,95145.50
2023-04-02T00:20:48.937Z,95135.72
2023-04-02T00:23:16.105Z,95150.34
2023-04-02T00:25:45.764Z,95153.63
2023-04-02T00:28:18.348Z,95165.09
2023-04-02T00:30:56.548Z,95157.50
2023-04-02T00:33:26.086Z,95160.28
2023-04-02T00:35:53.235Z,95164.38
2023-04-02T00:38:26.857Z,95159.25
2023-04-02T00:40:56.920Z,95156.34
2023-04-02T00:43:25.469Z,95157.59
2023-04-02T00:45:55.732Z,95155.03
2023-04-02T00:48:48.634Z,95165.06
2023-04-02T00:51:24.987Z,95154.44
2023-04-02T00:53:53.262Z,95167.75
2023-04-02T00:56:26.519Z,95163.78
2023-04-02T00:58:55.175Z,95162.16
2023-04-02T01:01:25.453Z,95170.56
2023-04-02T01:04:00.127Z,95164.59
2023-04-02T01:06:37.823Z,95163.66
2023-04-02T01:09:04.570Z,95167.66
2023-04-02T01:12:02.195Z,95164.97
2023-04-02T01:15:04.133Z,95158.66
2023-04-02T01:17:43.040Z,95154.47
2023-04-02T01:20:31.889Z,95159.94
2023-04-02T01:23:08.232Z,95160.88
2023-04-02T01:25:35.790Z,95162.59
2023-04-02T01:28:29.793Z,95162.13
2023-04-02T01:30:57.232Z,95159.88
2023-04-02T01:33:29.632Z,95168.44
2023-04-02T01:36:09.115Z,95163.31
2023-04-02T01:38:46.855Z,95164.59
2023-04-02T01:41:27.579Z,95163.16
2023-04-02T01:43:59.124Z,95162.47
2023-04-02T01:46:32.345Z,95176.00
2023-04-02T01:49:04.675Z,95173.19
2023-04-02T01:51:33.634Z,95169.03
2023-04-02T01:54:02.464Z,95170.41
2023-04-02T01:56:30.778Z,95166.09
2023-04-02T01:58:58.205Z,95164.13
2023-04-02T02:01:32.153Z,95169.34
2023-04-02T02:03:59.532Z,95170.16
2023-04-02T02:06:26.409Z,95173.56
2023-04-02T02:09:04.336Z,95170.97
2023-04-02T02:11:32.565Z,95177.50
2023-04-02T02:14:01.138Z,95177.75
2023-04-02T02:16:29.275Z,95182.41
2023-04-02T02:19:03.280Z,95182.78
2023-04-02T02:21:39.901Z,95184.28
2023-04-02T02:24:27.363Z,95194.94
2023-04-02T02:27:05.061Z,95191.22
2023-04-02T02:29:32.165Z,95201.97
2023-04-02T02:31:59.174Z,95201.25
2023-04-02T02:34:32.008Z,95196.94
2023-04-02T02:37:29.554Z,95201.75
2023-04-02T02:40:00.168Z,95203.25
2023-04-02T02:42:36.324Z,95198.72
2023-04-02T02:45:05.381Z,95203.72
2023-04-02T02:47:34.346Z,95202.56
2023-04-02T02:50:04.194Z,95202.31
2023-04-02T02:52:32.980Z,95202.78
2023-04-02T02:55:04.815Z,95209.88
2023-04-02T02:57:34.229Z,95211.63
2023-04-02T03:00:01.040Z,95209.97
2023-04-02T03:02:29.272Z,95211.47
2023-04-02T03:04:56.537Z,95201.44
2023-04-02T03:07:25.777Z,95202.72
2023-04-02T03:10:07.451Z,95206.91
2023-04-02T03:12:40.289Z,95203.63
2023-04-02T03:15:23.503Z,95208.53
2023-04-02T03:18:03.233Z,95214.81
2023-04-02T03:20:49.989Z,95209.88
2023-04-02T03:23:36.908Z,95214.50
2023-04-02T03:26:23.516Z,95222.31
2023-04-02T03:29:00.186Z,95221.16
2023-04-02T03:31:32.419Z,95222.63
2023-04-02T03:34:01.940Z,95218.56
2023-04-02T03:36:30.981Z,95214.47
2023-04-02T03:39:44.872Z,95208.81
2023-04-02T03:42:16.142Z,95211.22
2023-04-02T03:44:47.333Z,95211.50
2023-04-02T03:47:27.350Z,95212.38
2023-04-02T03:50:13.062Z,95219.25
2023-04-02T03:52:40.072Z,95224.00
2023-04-02T03:55:16.156Z,95227.13
2023-04-02T03:58:01.677Z,95225.72
2023-04-02T04:00:36.301Z,95225.94
2023-04-02T04:03:28.846Z,95224.16
2023-04-02T04:06:03.501Z,95230.25
2023-04-02T04:09:09.342Z,95222.81
2023-04-02T04:11:43.950Z,95219.00
2023-04-02T04:14:19.459Z,95225.66
2023-04-02T04:17:15.688Z,95232.19
2023-04-02T04:20:00.010Z,95226.84
2023-04-02T04:22:32.057Z,95220.75
2023-04-02T04:25:18.287Z,95220.00
2023-04-02T04:28:29.878Z,95221.31
2023-04-02T04:31:18.010Z,95229.06
2023-04-02T04:33:47.544Z,95232.75
2023-04-02T04:36:29.195Z,95236.31
2023-04-02T04:38:59.883Z,95239.47
2023-04-02T04:41:32.070Z,95245.06
2023-04-02T04:44:07.290Z,95254.56
2023-04-02T04:46:59.886Z,95242.25
2023-04-02T04:49:57.467Z,95248.59
2023-04-02T04:52:35.960Z,95248.22
2023-04-02T04:55:04.544Z,95246.59
2023-04-02T04:57:36.058Z,95250.09
2023-04-02T05:00:33.772Z,95255.00
2023-04-02T05:03:03.777Z,95261.13
2023-04-02T05:05:32.131Z,95258.66
2023-04-02T05:08:00.967Z,95253.56
2023-04-02T05:10:39.436Z,95258.78
2023-04-02T05:13:16.658Z,95258.41
2023-04-02T05:15:59.449Z,95252.31
2023-04-02T05:18:44.605Z,95265.69
2023-04-02T05:21:24.282Z,95263.19
2023-04-02T05:23:55.335Z,95269.38
2023-04-02T05:26:46.468Z,95273.41
2023-04-02T05:29:33.485Z,95270.91
2023-04-02T05:32:04.960Z,95263.91
2023-04-02T05:34:40.526Z,95266.31
2023-04-02T05:37:16.541Z,95265.94
2023-04-02T05:39:45.466Z,95270.28
2023-04-02T05:42:25.479Z,95263.44
2023-04-02T05:45:07.222Z,95274.88
2023-04-02T05:47:36.152Z,95275.81
2023-04-02T05:50:10.566Z,95277.56
2023-04-02T05:52:43.432Z,95269.53
2023-04-02T05:55:30.932Z,95282.47
2023-04-02T05:58:25.554Z,95287.66
2023-04-02T06:01:03.681Z,95293.25
2023-04-02T06:03:35.539Z,95285.78
2023-04-02T06:06:07.050Z,95293.19
2023-04-02T06:09:13.642Z,95302.63
2023-04-02T06:11:42.703Z,95293.19
2023-04-02T06:14:13.308Z,95299.91
2023-04-02T06:16:40.378Z,95298.81
2023-04-02T06:19:08.991Z,95302.59
2023-04-02T06:21:35.962Z,95309.81
2023-04-02T06:24:03.802Z,95302.25
2023-04-02T06:26:37.252Z,95302.66
2023-04-02T06:29:27.925Z,95306.81
2023-04-02T06:31:59.516Z,95305.72
2023-04-02T06:34:28.114Z,95307.00
2023-04-02T06:37:03.847Z,95320.13
2023-04-02T06:39:30.847Z,95325.59
2023-04-02T06:42:13.706Z,95318.97
2023-04-02T06:44:40.718Z,95320.56
2023-04-02T06:47:18.694Z,95333.00
2023-04-02T06:49:51.861Z,95327.53
2023-04-02T06:52:32.348Z,95326.72
2023-04-02T06:55:04.055Z,95340.50
2023-04-02T06:57:33.066Z,95341.47
2023-04-02T06:59:59.963Z,95335.31
2023-04-02T07:02:36.364Z,95342.38
2023-04-02T07:05:06.463Z,95346.94
2023-04-02T07:07:33.383Z,95350.88
2023-04-02T07:10:00.872Z,95350.50
2023-04-02T07:12:27.963Z,95353.38
2023-04-02T07:14:54.918Z,95351.75
2023-04-02T07:17:22.463Z,95355.72
2023-04-02T07:19:49.850Z,95355.38
2023-04-02T07:22:18.365Z,95349.91
2023-04-02T07:24:45.775Z,95359.63
2023-04-02T07:27:13.387Z,95350.28
2023-04-02T07:29:43.249Z,95364.28
2023-04-02T07:32:11.861Z,95357.81
2023-04-02T07:34:41.926Z,95359.09
2023-04-02T07:37:13.349Z,95366.16
2023-04-02T07:39:40.826Z,95365.13
2023-04-02T07:42:08.180Z,95362.88
2023-04-02T07:44:35.104Z,95366.19
2023-04-02T07:47:02.105Z,95376.72
2023-04-02T07:49:29.160Z,95373.78
2023-04-02T07:51:56.006Z,95377.66
2023-04-02T07:54:22.912Z,95383.28
2023-04-02T07:56:49.889Z,95383.47
2023-04-02T07:59:16.949Z,95383.59
2023-04-02T08:01:43.950Z,95383.88
2023-04-02T08:04:21.578Z,95394.94
2023-04-02T08:06:49.196Z,95391.94
2023-04-02T08:09:16.647Z,95402.34
2023-04-02T08:11:43.651Z,95402.44
2023-04-02T08:14:10.536Z,95395.03
2023-04-02T08:16:51.186Z,95402.13
2023-04-02T08:19:18.387Z,95396.03
2023-04-02T08:21:45.530Z,95403.34
2023-04-02T08:24:12.540Z,95408.19
2023-04-02T08:26:39.380Z,95412.25
2023-04-02T08:29:06.618Z,95411.28
2023-04-02T08:31:33.411Z,95423.22
2023-04-02T08:34:01.814Z,95427.13
2023-04-02T08:36:34.676Z,95423.00
2023-04-02T08:39:02.085Z,95415.50
2023-04-02T08:41:29.045Z,95420.84
2023-04-02T08:44:10.644Z,95425.25
2023-04-02T08:46:46.432Z,95419.91
2023-04-02T08:49:18.297Z,95426.75
2023-04-02T08:51:45.718Z,95438.00
2023-04-02T08:54:22.790Z,95418.50
2023-04-02T08:57:23.165Z,95429.50
2023-04-02T08:59:51.273Z,95429.19
2023-04-02T09:02:19.385Z,95431.91
2023-04-02T09:04:46.370Z,95429.38
2023-04-02T09:07:14.962Z,95430.75
2023-04-02T09:09:42.114Z,95426.19
2023-04-02T09:12:42.307Z,95433.13
2023-04-02T09:15:45.073Z,95431.38
2023-04-02T09:18:17.454Z,95440.03
2023-04-02T09:20:45.020Z,95437.75
2023-04-02T09:23:20.296Z,95435.91
2023-04-02T09:26:02.862Z,95432.88
2023-04-02T09:28:31.797Z,95440.44
2023-04-02T09:31:02.274Z,95437.81
2023-04-02T09:33:49.252Z,95449.47
2023-04-02T09:36:38.151Z,95440.59
2023-04-02T09:39:18.626Z,95440.91
2023-04-02T09:41:50.282Z,95449.16
2023-04-02T09:44:27.373Z,95445.84
2023-04-02T09:46:56.448Z,95441.34
2023-04-02T09:49:24.908Z,95445.56
2023-04-02T09:52:19.478Z,95442.38
2023-04-02T09:54:47.849Z,95447.44
2023-04-02T09:57:24.158Z,95450.78
2023-04-02T10:00:30.472Z,95448.66
2023-04-02T10:03:21.958Z,95446.84
2023-04-02T10:05:49.191Z,95438.88
2023-04-02T10:08:18.233Z,95444.28
2023-04-02T10:10:48.672Z,95444.28
2023-04-02T10:13:38.733Z,95446.78
2023-04-02T10:16:33.479Z,95452.69
2023-04-02T10:19:20.276Z,95449.50
2023-04-02T10:21:47.376Z,95456.81
2023-04-02T10:24:17.529Z,95450.44
2023-04-02T10:27:30.021Z,95450.59
2023-04-02T10:30:16.464Z,95457.59
2023-04-02T10:32:43.408Z,95464.69
2023-04-02T10:35:25.537Z,95467.47
2023-04-02T10:38:19.743Z,95463.69
2023-04-02T10:41:27.263Z,95464.31
2023-04-02T10:44:20.130Z,95462.91
2023-04-02T10:47:06.291Z,95464.44
2023-04-02T10:49:42.270Z,95465.38
2023-04-02T10:52:23.140Z,95471.63
2023-04-02T10:54:55.229Z,95463.44
2023-04-02T10:57:38.636Z,95464.50
2023-04-02T11:00:11.528Z,95463.59
2023-04-02T11:03:08.339Z,95460.53
2023-04-02T11:05:46.619Z,95463.94
2023-04-02T11:08:27.683Z,95464.63
2023-04-02T11:11:04.776Z,95460.53
2023-04-02T11:13:50.931Z,95467.00
2023-04-02T11:16:18.089Z,95455.56
2023-04-02T11:19:08.354Z,95471.16
2023-04-02T11:21:59.993Z,95471.53
2023-04-02T11:24:34.332Z,95471.75
2023-04-02T11:27:10.046Z,95464.53
2023-04-02T11:30:14.046Z,95473.22
2023-04-02T11:32:43.279Z,95468.56
2023-04-02T11:35:28.274Z,95472.06
2023-04-02T11:38:04.645Z,95478.09
2023-04-02T11:40:42.143Z,95476.72
2023-04-02T11:43:33.640Z,95481.28
2023-04-02T11:46:26.974Z,95486.41
2023-04-02T11:48:55.513Z,95489.88
2023-04-02T11:51:25.667Z,95488.03
2023-04-02T11:53:54.136Z,95487.81
2023-04-02T11:56:32.596Z,95488.03
2023-04-02T11:59:28.946Z,95497.63
2023-04-02T12:02:17.450Z,95500.16
2023-04-02T12:04:53.236Z,95498.13
2023-04-02T12:07:35.202Z,95493.59
2023-04-02T12:10:20.795Z,95497.81
2023-04-02T12:12:48.794Z,95500.34
2023-04-02T12:15:46.024Z,95507.38
2023-04-02T12:18:23.455Z,95501.00
2023-04-02T12:20:56.170Z,95497.34
2023-04-02T12:23:33.853Z,95501.44
2023-04-02T12:26:03.866Z,95509.31
2023-04-02T12:28:31.684Z,95505.03
2023-04-02T12:31:15.231Z,95512.22
2023-04-02T12:33:42.592Z,95509.03
2023-04-02T12:36:14.856Z,95517.06
2023-04-02T12:38:46.716Z,95508.94
2023-04-02T12:41:24.489Z,95496.06
2023-04-02T12:44:07.336Z,95511.13
2023-04-02T12:46:36.526Z,95512.16
2023-04-02T12:49:16.450Z,95507.94
2023-04-02T12:51:43.366Z,95511.53
2023-04-02T12:54:14.882Z,95507.28
2023-04-02T12:56:41.787Z,95503.53
2023-04-02T12:59:25.235Z,95504.25
2023-04-02T13:01:59.246Z,95509.97
2023-04-02T13:04:26.807Z,95520.78
2023-04-02T13:06:57.121Z,95518.41
2023-04-02T13:09:39.011Z,95511.53
2023-04-02T13:12:06.156Z,95518.09
2023-04-02T13:14:33.139Z,95520.63
2023-04-02T13:17:00.035Z,95518.06
2023-04-02T13:19:32.025Z,95521.53
2023-04-02T13:22:01.957Z,95517.88
2023-04-02T13:24:32.843Z,95520.00
2023-04-02T13:27:02.427Z,95520.94
2023-04-02T13:29:34.307Z,95512.03
2023-04-02T13:32:03.238Z,95507.94
2023-04-02T13:34:29.982Z,95509.38
2023-04-02T13:36:57.784Z,95509.63
2023-04-02T13:39:24.882Z,95507.31
2023-04-02T13:41:55.944Z,95512.38
2023-04-02T13:44:24.234Z,95506.66
2023-04-02T13:46:51.187Z,95506.03
2023-04-02T13:49:18.703Z,95507.56
2023-04-02T13:51:50.819Z,95508.69
2023-04-02T13:54:45.440Z,95510.25
2023-04-02T13:57:12.653Z,95509.91
2023-04-02T13:59:39.531Z,95517.69
2023-04-02T14:02:15.518Z,95513.75
2023-04-02T14:04:46.312Z,95508.38
2023-04-02T14:07:17.402Z,95515.09
2023-04-02T14:10:16.614Z,95521.94
2023-04-02T14:13:14.356Z,95514.31
2023-04-02T14:15:53.248Z,95522.97
2023-04-02T14:18:24.108Z,95521.84
2023-04-02T14:21:03.790Z,95524.19
2023-04-02T14:23:55.703Z,95523.25
2023-04-02T14:27:01.987Z,95531.34
2023-04-02T14:29:51.280Z,95530.81
2023-04-02T14:33:13.873Z,95523.84
2023-04-02T14:35:46.295Z,95538.81
2023-04-02T14:38:19.137Z,95535.63
2023-04-02T14:40:49.862Z,95534.69
2023-04-02T14:43:27.835Z,95529.41
2023-04-02T14:46:02.979Z,95544.13
2023-04-02T14:48:59.338Z,95545.03
2023-04-02T14:51:36.976Z,95545.03
2023-04-02T14:54:25.526Z,95538.13
2023-04-02T14:57:17.269Z,95544.13
2023-04-02T15:00:05.680Z,95540.13
2023-04-02T15:02:49.282Z,95538.41
2023-04-02T15:05:28.638Z,95538.41
2023-04-02T15:07:59.917Z,95541.63
2023-04-02T15:10:28.864Z,95532.22
2023-04-02T15:12:56.190Z,95530.44
2023-04-02T15:15:41.619Z,95541.47
2023-04-02T15:18:16.692Z,95535.56
2023-04-02T15:20:47.285Z,95536.56
2023-04-02T15:23:26.149Z,95541.31
2023-04-02T15:25:59.087Z,95540.34
2023-04-02T15:28:30.544Z,95540.19
2023-04-02T15:31:00.093Z,95534.88
2023-04-02T15:33:41.236Z,95537.38
2023-04-02T15:36:42.158Z,95538.09
2023-04-02T15:39:13.067Z,95539.56
2023-04-02T15:41:55.064Z,95540.81
2023-04-02T15:44:21.895Z,95543.03
2023-04-02T15:46:51.671Z,95542.44
2023-04-02T15:49:44.342Z,95546.47
2023-04-02T15:52:11.779Z,95555.50
2023-04-02T15:55:02.581Z,95549.03
2023-04-02T15:57:49.344Z,95555.88
2023-04-02T16:00:30.706Z,95550.38
2023-04-02T16:03:21.601Z,95553.38
2023-04-02T16:06:06.861Z,95555.16
2023-04-02T16:09:06.011Z,95553.38
2023-04-02T16:11:33.973Z,95568.41
2023-04-02T16:14:27.672Z,95558.38
2023-04-02T16:16:59.914Z,95572.59
2023-04-02T16:19:32.737Z,95573.97
2023-04-02T16:22:11.530Z,95574.78
2023-04-02T16:24:38.449Z,95578.97
2023-04-02T16:27:15.410Z,95587.78
2023-04-02T16:30:02.532Z,95590.59
2023-04-02T16:32:48.493Z,95596.50
2023-04-02T16:35:43.290Z,95605.94
2023-04-02T16:38:28.046Z,95610.25
2023-04-02T16:41:08.665Z,95619.09
2023-04-02T16:43:54.905Z,95634.50
2023-04-02T16:46:39.862Z,95636.16
2023-04-02T16:49:25.689Z,95641.56
2023-04-02T16:51:54.922Z,95644.25
2023-04-02T16:54:21.867Z,95650.25
2023-04-02T16:57:36.314Z,95667.91
2023-04-02T17:00:24.704Z,95659.66
2023-04-02T17:03:18.951Z,95680.03
2023-04-02T17:06:13.518Z,95677.88
2023-04-02T17:08:44.845Z,95680.91
2023-04-02T17:11:41.961Z,95682.88
2023-04-02T17:14:18.812Z,95681.19
2023-04-02T17:16:46.706Z,95693.69
2023-04-02T17:19:14.999Z,95700.59
2023-04-02T17:21:45.562Z,95699.06
2023-04-02T17:24:31.173Z,95708.16
2023-04-02T17:27:13.044Z,95713.78
2023-04-02T17:29:42.477Z,95718.56
2023-04-02T17:32:15.311Z,95725.84
2023-04-02T17:34:42.252Z,95726.44
2023-04-02T17:37:15.798Z,95734.78
2023-04-02T17:39:52.268Z,95723.47
2023-04-02T17:42:50.956Z,95731.22
2023-04-02T17:45:29.901Z,95734.53
2023-04-02T17:48:06.551Z,95736.91
2023-04-02T17:50:40.480Z,95745.44
2023-04-02T17:53:28.535Z,95749.31
2023-04-02T17:56:35.264Z,95750.75
2023-04-02T17:59:26.678Z,95752.97
2023-04-02T18:02:06.429Z,95758.97
2023-04-02T18:04:46.297Z,95764.38
2023-04-02T18:07:31.864Z,95761.16
2023-04-02T18:10:04.877Z,95773.13
2023-04-02T18:12:55.746Z,95766.47
2023-04-02T18:15:46.504Z,95771.03
2023-04-02T18:18:16.080Z,95768.63
2023-04-02T18:20:48.491Z,95776.28
2023-04-02T18:23:54.494Z,95763.63
2023-04-02T18:26:44.709Z,95782.00
2023-04-02T18:29:37.800Z,95786.13
2023-04-02T18:32:04.755Z,95782.97
2023-04-02T18:34:40.532Z,95786.00
2023-04-02T18:37:33.938Z,95794.56
2023-04-02T18:40:03.463Z,95800.75
2023-04-02T18:42:46.871Z,95795.59
2023-04-02T18:45:35.555Z,95805.19
2023-04-02T18:48:36.528Z,95813.16
2023-04-02T18:51:05.221Z,95820.63
2023-04-02T18:53:33.632Z,95822.25
2023-04-02T18:56:04.992Z,95820.16
2023-04-02T18:58:53.706Z,95829.31
2023-04-02T19:01:28.092Z,95827.28
2023-04-02T19:04:19.981Z,95828.78
2023-04-02T19:07:09.230Z,95831.69
2023-04-02T19:09:38.786Z,95835.59
2023-04-02T19:12:24.444Z,95834.91
2023-04-02T19:14:52.506Z,95841.47
2023-04-02T19:17:39.425Z,95845.38
2023-04-02T19:20:43.841Z,95848.75
2023-04-02T19:23:37.776Z,95855.13
2023-04-02T19:26:10.154Z,95848.78
2023-04-02T19:29:15.694Z,95856.94
2023-04-02T19:31:45.655Z,95860.44
2023-04-02T19:34:24.485Z,95868.16
2023-04-02T19:36:55.239Z,95868.75
2023-04-02T19:39:40.190Z,95875.19
2023-04-02T19:42:25.446Z,95878.84
2023-04-02T19:44:52.305Z,95875.41
2023-04-02T19:47:19.162Z,95885.72
2023-04-02T19:49:46.302Z,95888.63
2023-04-02T19:52:13.291Z,95886.63
2023-04-02T19:54:40.253Z,95893.66
2023-04-02T19:57:07.347Z,95902.09
2023-04-02T19:59:34.250Z,95898.28
2023-04-02T20:02:06.127Z,95905.13
2023-04-02T20:04:33.013Z,95910.25
2023-04-02T20:07:00.282Z,95918.59
2023-04-02T20:09:27.214Z,95919.97
2023-04-02T20:11:54.060Z,95909.19
2023-04-02T20:14:21.058Z,95926.66
2023-04-02T20:16:47.896Z,95922.75
2023-04-02T20:19:14.807Z,95920.91
2023-04-02T20:21:41.827Z,95923.13
2023-04-02T20:24:08.815Z,95919.09
2023-04-02T20:26:36.360Z,95919.81
2023-04-02T20:29:03.385Z,95919.72
2023-04-02T20:31:30.563Z,95923.28
2023-04-02T20:33:58.373Z,95917.66
2023-04-02T20:36:26.027Z,95927.28
2023-04-02T20:38:52.981Z,95921.69
2023-04-02T20:41:20.066Z,95920.88
2023-04-02T20:43:47.021Z,95920.72
2023-04-02T20:46:14.068Z,95918.00
2023-04-02T20:48:41.228Z,95923.78
2023-04-02T20:51:09.086Z,95923.41
2023-04-02T20:53:36.638Z,95916.81
2023-04-02T20:56:08.424Z,95916.66
2023-04-02T20:58:36.166Z,95913.97
2023-04-02T21:01:10.079Z,95915.84
2023-04-02T21:03:37.202Z,95919.38
2023-04-02T21:06:04.392Z,95924.03
2023-04-02T21:08:31.340Z,95918.41
2023-04-02T21:11:03.131Z,95917.97
2023-04-02T21:13:32.031Z,95929.13
2023-04-02T21:15:59.240Z,95913.63
2023-04-02T21:18:26.192Z,95923.56
2023-04-02T21:21:04.118Z,95928.16
2023-04-02T21:23:31.643Z,95922.97
2023-04-02T21:26:04.701Z,95935.13
2023-04-02T21:28:32.346Z,95930.38
2023-04-02T21:31:11.004Z,95939.28
2023-04-02T21:33:40.014Z,95936.16
2023-04-02T21:36:13.796Z,95955.63
2023-04-02T21:38:45.846Z,95951.72
2023-04-02T21:41:21.587Z,95962.25
2023-04-02T21:43:48.890Z,95963.19
2023-04-02T21:46:17.259Z,95961.44
2023-04-02T21:48:44.297Z,95962.50
2023-04-02T21:51:13.120Z,95965.78
2023-04-02T21:53:40.436Z,95959.56
2023-04-02T21:56:09.907Z,95953.16
2023-04-02T21:58:37.062Z,95955.56
2023-04-02T22:01:05.574Z,95949.66
2023-04-02T22:03:36.042Z,95944.22
2023-04-02T22:06:11.560Z,95954.91
2023-04-02T22:08:39.348Z,95956.97
2023-04-02T22:11:16.760Z,95955.47
2023-04-02T22:13:44.848Z,95949.03
2023-04-02T22:16:16.311Z,95949.19
2023-04-02T22:18:43.767Z,95954.13
2023-04-02T22:21:11.776Z,95949.63
2023-04-02T22:23:39.278Z,95950.53
2023-04-02T22:26:06.427Z,95946.78
2023-04-02T22:28:33.525Z,95953.16
2023-04-02T22:31:19.978Z,95944.25
2023-04-02T22:33:47.298Z,95955.38
2023-04-02T22:36:14.894Z,95951.88
2023-04-02T22:38:41.790Z,95948.94
2023-04-02T22:41:10.376Z,95947.06
2023-04-02T22:43:37.682Z,95951.81
2023-04-02T22:46:06.314Z,95952.19
2023-04-02T22:48:33.433Z,95956.50
2023-04-02T22:51:00.730Z,95964.47
2023-04-02T22:53:27.774Z,95954.56
2023-04-02T22:55:54.803Z,95951.28
2023-04-02T22:58:21.763Z,95955.66
2023-04-02T23:00:48.681Z,95952.78
2023-04-02T23:03:15.808Z,95952.16
2023-04-02T23:05:43.071Z,95958.16
2023-04-02T23:08:10.006Z,95952.66
2023-04-02T23:10:37.134Z,95952.34
2023-04-02T23:13:04.152Z,95955.78
2023-04-02T23:15:31.162Z,95955.41
2023-04-02T23:17:58.044Z,95950.59
2023-04-02T23:20:25.022Z,95946.28
2023-04-02T23:22:52.145Z,95942.59
2023-04-02T23:25:19.023Z,95943.09
2023-04-02T23:27:46.180Z,95942.72
2023-04-02T23:30:13.121Z,95952.50
2023-04-02T23:32:40.135Z,95947.13
2023-04-02T23:35:10.044Z,95939.50
2023-04-02T23:37:37.027Z,95940.91
2023-04-02T23:40:04.371Z,95943.38
2023-04-02T23:42:31.209Z,95947.72
2023-04-02T23:44:58.098Z,95945.69
2023-04-02T23:47:24.979Z,95937.81
2023-04-02T23:49:52.002Z,95938.44
2023-04-02T23:52:18.930Z,95938.44
2023-04-02T23:54:46.031Z,95942.78
2023-04-02T23:57:12.990Z,95935.69
2023-04-02T23:59:40.461Z,95928.00
